createdAt,value
2022-11-23T00:01:36.162Z,99915.71
2022-11-23T00:04:10.504Z,99913.18
2022-11-23T00:06:38.653Z,99910.20
2022-11-23T00:09:07.443Z,99905.95
2022-11-23T00:11:36.436Z,99909.21
2022-11-23T00:14:04.920Z,99906.99
2022-11-23T00:16:32.885Z,99900.15
2022-11-23T00:19:01.800Z,99899.84
2022-11-23T00:21:31.595Z,99897.54
2022-11-23T00:23:59.797Z,99892.04
2022-11-23T00:26:28.242Z,99888.34
2022-11-23T00:28:56.116Z,99893.27
2022-11-23T00:31:28.197Z,99891.50
2022-11-23T00:33:58.091Z,99894.40
2022-11-23T00:36:27.604Z,99892.13
2022-11-23T00:38:55.783Z,99894.84
2022-11-23T00:41:26.732Z,99897.85
2022-11-23T00:43:54.999Z,99896.84
2022-11-23T00:46:27.704Z,99899.70
2022-11-23T00:48:57.897Z,99895.85
2022-11-23T00:51:30.236Z,99898.53
2022-11-23T00:53:59.927Z,99892.98
2022-11-23T00:56:29.660Z,99894.52
2022-11-23T00:58:59.300Z,99896.09
2022-11-23T01:01:31.204Z,99900.29
2022-11-23T01:04:01.290Z,99897.03
2022-11-23T01:06:35.563Z,99899.92
2022-11-23T01:09:12.188Z,99902.71
2022-11-23T01:11:40.555Z,99901.77
2022-11-23T01:14:08.727Z,99903.30
2022-11-23T01:16:39.269Z,99901.30
2022-11-23T01:19:10.954Z,99903.58
2022-11-23T01:21:40.109Z,99906.45
2022-11-23T01:24:12.500Z,99909.57
2022-11-23T01:26:41.376Z,99912.23
2022-11-23T01:29:09.242Z,99913.69
2022-11-23T01:31:46.181Z,99917.84
2022-11-23T01:34:16.245Z,99922.84
2022-11-23T01:36:44.928Z,99920.64
2022-11-23T01:39:13.822Z,99920.05
2022-11-23T01:41:45.425Z,99930.71
2022-11-23T01:44:34.677Z,99932.54
2022-11-23T01:47:07.875Z,99930.31
2022-11-23T01:49:43.502Z,99925.30
2022-11-23T01:52:24.027Z,99922.41
2022-11-23T01:54:59.185Z,99921.16
2022-11-23T01:57:33.120Z,99920.96
2022-11-23T02:00:02.333Z,99920.86
2022-11-23T02:02:53.957Z,99918.88
2022-11-23T02:05:27.844Z,99916.48
2022-11-23T02:07:55.832Z,99910.59
2022-11-23T02:10:24.181Z,99910.09
2022-11-23T02:12:53.583Z,99910.48
2022-11-23T02:15:21.605Z,99909.94
2022-11-23T02:17:51.580Z,99911.20
2022-11-23T02:20:19.928Z,99908.59
2022-11-23T02:23:02.597Z,99910.79
2022-11-23T02:25:45.703Z,99909.52
2022-11-23T02:28:22.569Z,99913.36
2022-11-23T02:30:53.326Z,99920.29
2022-11-23T02:33:25.609Z,99921.52
2022-11-23T02:35:57.059Z,99920.24
2022-11-23T02:38:28.600Z,99920.46
2022-11-23T02:40:58.334Z,99922.65
2022-11-23T02:43:26.588Z,99919.23
2022-11-23T02:46:01.926Z,99917.53
2022-11-23T02:48:29.777Z,99912.94
2022-11-23T02:50:57.589Z,99912.75
2022-11-23T02:53:25.420Z,99913.27
2022-11-23T02:55:54.609Z,99911.70
2022-11-23T02:58:22.453Z,99914.15
2022-11-23T03:00:50.573Z,99914.17
2022-11-23T03:03:21.079Z,99920.50
2022-11-23T03:05:48.943Z,99917.95
2022-11-23T03:08:16.797Z,99916.95
2022-11-23T03:10:44.782Z,99918.01
2022-11-23T03:13:13.059Z,99920.45
2022-11-23T03:15:41.747Z,99919.34
2022-11-23T03:18:11.361Z,99920.38
2022-11-23T03:20:40.042Z,99922.95
2022-11-23T03:23:08.021Z,99918.09
2022-11-23T03:25:35.862Z,99913.52
2022-11-23T03:28:05.302Z,99914.66
2022-11-23T03:30:34.563Z,99913.86
2022-11-23T03:33:04.192Z,99916.71
2022-11-23T03:35:32.160Z,99924.39
2022-11-23T03:38:15.083Z,99923.24
2022-11-23T03:40:46.481Z,99923.22
2022-11-23T03:43:23.259Z,99924.15
2022-11-23T03:45:51.204Z,99925.31
2022-11-23T03:48:19.684Z,99924.64
2022-11-23T03:50:47.730Z,99925.31
2022-11-23T03:53:16.837Z,99932.29
2022-11-23T03:55:47.009Z,99933.76
2022-11-23T03:58:15.743Z,99933.87
2022-11-23T04:00:44.054Z,99933.56
2022-11-23T04:03:14.307Z,99934.52
2022-11-23T04:06:09.341Z,99934.75
2022-11-23T04:09:02.111Z,99933.79
2022-11-23T04:11:59.753Z,99927.80
2022-11-23T04:14:27.729Z,99923.92
2022-11-23T04:16:55.784Z,99924.31
2022-11-23T04:19:23.669Z,99924.83
2022-11-23T04:21:51.740Z,99922.40
2022-11-23T04:24:20.426Z,99925.00
2022-11-23T04:26:48.440Z,99928.35
2022-11-23T04:29:16.367Z,99930.02
2022-11-23T04:31:47.414Z,99931.84
2022-11-23T04:34:18.315Z,99931.03
2022-11-23T04:36:46.829Z,99935.48
2022-11-23T04:39:15.005Z,99942.66
2022-11-23T04:42:01.899Z,99936.65
2022-11-23T04:44:31.645Z,99933.15
2022-11-23T04:47:02.861Z,99933.62
2022-11-23T04:49:32.188Z,99933.54
2022-11-23T04:52:00.459Z,99934.16
2022-11-23T04:54:32.929Z,99933.75
2022-11-23T04:57:02.469Z,99937.86
2022-11-23T04:59:30.683Z,99938.70
2022-11-23T05:02:00.321Z,99943.20
2022-11-23T05:04:48.516Z,99941.54
2022-11-23T05:07:17.946Z,99944.70
2022-11-23T05:09:50.579Z,99946.67
2022-11-23T05:12:20.296Z,99948.73
2022-11-23T05:14:48.228Z,99950.30
2022-11-23T05:17:20.860Z,99955.70
2022-11-23T05:19:50.106Z,99960.38
2022-11-23T05:22:18.615Z,99961.52
2022-11-23T05:24:46.765Z,99959.73
2022-11-23T05:27:17.908Z,99964.05
2022-11-23T05:29:47.003Z,99968.18
2022-11-23T05:32:15.359Z,99967.94
2022-11-23T05:34:43.967Z,99966.56
2022-11-23T05:37:13.092Z,99969.89
2022-11-23T05:39:49.636Z,99967.30
2022-11-23T05:42:18.670Z,99964.04
2022-11-23T05:44:48.852Z,99963.95
2022-11-23T05:47:21.839Z,99964.95
2022-11-23T05:49:50.729Z,99961.09
2022-11-23T05:52:20.287Z,99961.26
2022-11-23T05:54:49.575Z,99961.73
2022-11-23T05:57:18.020Z,99966.27
2022-11-23T05:59:46.713Z,99968.05
2022-11-23T06:02:28.707Z,99964.97
2022-11-23T06:05:01.182Z,99964.11
2022-11-23T06:07:38.028Z,99960.85
2022-11-23T06:10:10.022Z,99967.24
2022-11-23T06:12:40.757Z,99979.48
2022-11-23T06:15:12.721Z,99983.36
2022-11-23T06:17:40.895Z,99987.33
2022-11-23T06:20:12.759Z,99993.04
2022-11-23T06:22:44.412Z,99993.97
2022-11-23T06:25:12.481Z,99996.33
2022-11-23T06:27:42.809Z,99998.86
2022-11-23T06:30:24.585Z,100000.73
2022-11-23T06:32:53.193Z,100002.55
2022-11-23T06:35:23.891Z,100005.92
2022-11-23T06:37:53.838Z,100005.53
2022-11-23T06:40:21.911Z,100010.80
2022-11-23T06:42:51.136Z,100015.59
2022-11-23T06:45:28.092Z,100020.79
2022-11-23T06:47:57.394Z,100027.52
2022-11-23T06:50:25.488Z,100026.05
2022-11-23T06:52:58.030Z,100023.02
2022-11-23T06:55:36.457Z,100026.06
2022-11-23T06:58:06.371Z,100027.77
2022-11-23T07:00:34.649Z,100030.33
2022-11-23T07:03:03.131Z,100027.44
2022-11-23T07:05:33.968Z,100021.52
2022-11-23T07:08:02.108Z,100017.86
2022-11-23T07:10:31.488Z,100024.45
2022-11-23T07:13:09.835Z,100023.27
2022-11-23T07:15:38.710Z,100025.28
2022-11-23T07:18:07.954Z,100017.30
2022-11-23T07:20:36.707Z,100019.86
2022-11-23T07:23:08.035Z,100029.98
2022-11-23T07:25:37.927Z,100033.35
2022-11-23T07:28:07.580Z,100028.41
2022-11-23T07:30:36.346Z,100032.88
2022-11-23T07:33:08.517Z,100034.21
2022-11-23T07:35:38.304Z,100035.66
2022-11-23T07:38:08.145Z,100041.25
2022-11-23T07:40:37.784Z,100039.05
2022-11-23T07:43:07.236Z,100041.86
2022-11-23T07:45:36.844Z,100037.33
2022-11-23T07:48:09.359Z,100035.64
2022-11-23T07:50:39.004Z,100037.95
2022-11-23T07:53:07.688Z,100037.08
2022-11-23T07:55:35.557Z,100041.32
2022-11-23T07:58:03.626Z,100040.68
2022-11-23T08:00:31.727Z,100041.51
2022-11-23T08:05:48.529Z,100039.28
2022-11-23T08:08:16.706Z,100038.13
2022-11-23T08:10:48.533Z,100040.80
2022-11-23T08:13:21.147Z,100040.52
2022-11-23T08:15:55.743Z,100043.88
2022-11-23T08:18:24.615Z,100043.27
2022-11-23T08:20:53.490Z,100042.40
2022-11-23T08:23:21.958Z,100042.31
2022-11-23T08:25:50.322Z,100038.70
2022-11-23T08:28:18.899Z,100043.64
2022-11-23T08:30:47.696Z,100041.57
2022-11-23T08:33:16.172Z,100042.14
2022-11-23T08:35:44.854Z,100044.52
2022-11-23T08:38:13.234Z,100046.55
2022-11-23T08:40:41.305Z,100045.76
2022-11-23T08:43:09.684Z,100051.94
2022-11-23T08:45:37.756Z,100053.34
2022-11-23T08:48:06.545Z,100052.29
2022-11-23T08:50:35.599Z,100057.27
2022-11-23T08:53:03.712Z,100059.75
2022-11-23T08:55:31.890Z,100061.45
2022-11-23T08:58:00.166Z,100058.54
2022-11-23T09:00:28.953Z,100063.08
2022-11-23T09:02:59.182Z,100064.05
2022-11-23T09:05:29.616Z,100063.89
2022-11-23T09:08:01.468Z,100060.40
2022-11-23T09:10:29.742Z,100057.91
2022-11-23T09:12:59.494Z,100060.88
2022-11-23T09:15:27.730Z,100059.36
2022-11-23T09:17:57.139Z,100058.83
2022-11-23T09:20:25.651Z,100056.91
2022-11-23T09:22:55.475Z,100054.85
2022-11-23T09:25:24.627Z,100056.61
2022-11-23T09:27:59.999Z,100055.71
2022-11-23T09:30:28.137Z,100055.02
2022-11-23T09:32:58.146Z,100056.89
2022-11-23T09:35:26.283Z,100059.08
2022-11-23T09:37:58.511Z,100057.71
2022-11-23T09:40:36.510Z,100057.61
2022-11-23T09:43:33.274Z,100051.75
2022-11-23T09:46:11.364Z,100052.63
2022-11-23T09:49:16.456Z,100051.11
2022-11-23T09:51:45.499Z,100050.92
2022-11-23T09:54:29.405Z,100049.84
2022-11-23T09:57:01.682Z,100047.80
2022-11-23T09:59:29.991Z,100048.76
2022-11-23T10:01:59.152Z,100044.94
2022-11-23T10:04:33.364Z,100037.77
2022-11-23T10:07:29.747Z,100037.98
2022-11-23T10:10:21.585Z,100042.63
2022-11-23T10:13:35.416Z,100038.59
2022-11-23T10:16:06.411Z,100037.77
2022-11-23T10:18:41.288Z,100034.67
2022-11-23T10:21:35.076Z,100031.80
2022-11-23T10:24:08.974Z,100030.32
2022-11-23T10:26:41.591Z,100025.52
2022-11-23T10:29:35.484Z,100029.69
2022-11-23T10:32:11.717Z,100034.48
2022-11-23T10:34:52.674Z,100031.90
2022-11-23T10:37:20.652Z,100031.73
2022-11-23T10:39:48.824Z,100027.46
2022-11-23T10:42:49.506Z,100029.11
2022-11-23T10:45:31.553Z,100030.19
2022-11-23T10:48:00.549Z,100031.88
2022-11-23T10:50:37.368Z,100032.00
2022-11-23T10:53:05.384Z,100027.80
2022-11-23T10:55:47.599Z,100023.15
2022-11-23T10:58:30.558Z,100022.67
2022-11-23T11:01:23.268Z,100025.96
2022-11-23T11:03:53.169Z,100024.52
2022-11-23T11:06:26.343Z,100026.48
2022-11-23T11:08:56.921Z,100021.27
2022-11-23T11:11:33.101Z,100011.52
2022-11-23T11:14:23.514Z,100010.91
2022-11-23T11:16:58.189Z,100004.09
2022-11-23T11:19:36.317Z,100001.64
2022-11-23T11:22:26.071Z,100000.95
2022-11-23T11:24:55.134Z,99999.70
2022-11-23T11:27:26.383Z,99997.93
2022-11-23T11:29:58.081Z,99997.13
2022-11-23T11:32:35.674Z,99996.21
2022-11-23T11:35:20.822Z,99995.45
2022-11-23T11:37:52.599Z,99992.78
2022-11-23T11:40:26.501Z,99989.34
2022-11-23T11:43:31.249Z,99988.79
2022-11-23T11:46:31.659Z,99992.63
2022-11-23T11:49:07.834Z,99989.86
2022-11-23T11:51:41.283Z,99989.57
2022-11-23T11:54:18.561Z,99988.67
2022-11-23T11:56:50.818Z,99984.27
2022-11-23T11:59:42.727Z,99985.80
2022-11-23T12:02:33.990Z,99989.99
2022-11-23T12:05:11.376Z,99990.13
2022-11-23T12:08:01.393Z,99991.59
2022-11-23T12:11:02.389Z,99990.11
2022-11-23T12:13:38.622Z,99990.27
2022-11-23T12:16:15.335Z,99990.71
2022-11-23T12:19:01.463Z,99990.10
2022-11-23T12:22:07.314Z,99993.31
2022-11-23T12:25:16.301Z,100000.87
2022-11-23T12:28:23.601Z,100005.73
2022-11-23T12:31:17.036Z,100002.62
2022-11-23T12:34:26.208Z,100004.32
2022-11-23T12:37:09.215Z,100006.41
2022-11-23T12:39:55.409Z,100004.84
2022-11-23T12:42:48.406Z,100008.57
2022-11-23T12:45:31.429Z,100012.23
2022-11-23T12:48:41.187Z,100008.20
2022-11-23T12:51:17.998Z,100004.73
2022-11-23T12:54:18.854Z,100004.29
2022-11-23T12:57:28.629Z,100004.91
2022-11-23T13:00:11.979Z,100006.34
2022-11-23T13:03:06.189Z,100007.43
2022-11-23T13:05:56.009Z,100009.73
2022-11-23T13:08:39.172Z,100010.34
2022-11-23T13:11:27.819Z,100006.99
2022-11-23T13:14:09.525Z,100002.98
2022-11-23T13:16:57.849Z,100007.31
2022-11-23T13:19:40.900Z,100011.55
2022-11-23T13:22:17.972Z,100011.82
2022-11-23T13:25:25.989Z,100016.80
2022-11-23T13:27:56.406Z,100013.73
2022-11-23T13:30:35.606Z,100010.61
2022-11-23T13:33:18.310Z,100013.91
2022-11-23T13:35:57.479Z,100007.86
2022-11-23T13:38:27.919Z,100007.44
2022-11-23T13:40:56.463Z,100010.88
2022-11-23T13:43:36.753Z,100012.55
2022-11-23T13:46:07.740Z,100015.23
2022-11-23T13:48:59.546Z,100014.34
2022-11-23T13:51:33.708Z,100014.08
2022-11-23T13:54:04.678Z,100016.58
2022-11-23T13:56:39.503Z,100025.73
2022-11-23T13:59:23.033Z,100028.55
2022-11-23T14:02:00.284Z,100033.02
2022-11-23T14:04:38.807Z,100033.87
2022-11-23T14:07:25.762Z,100031.30
2022-11-23T14:10:15.537Z,100030.25
2022-11-23T14:12:49.067Z,100033.98
2022-11-23T14:15:21.984Z,100031.90
2022-11-23T14:18:11.530Z,100032.89
2022-11-23T14:20:54.823Z,100033.87
2022-11-23T14:23:54.509Z,100037.09
2022-11-23T14:26:55.352Z,100036.90
2022-11-23T14:29:29.225Z,100036.77
2022-11-23T14:32:22.459Z,100038.67
2022-11-23T14:35:18.923Z,100038.23
2022-11-23T14:38:02.190Z,100045.38
2022-11-23T14:40:36.506Z,100048.94
2022-11-23T14:43:04.982Z,100052.48
2022-11-23T14:45:34.865Z,100051.70
2022-11-23T14:48:29.452Z,100048.71
2022-11-23T14:51:11.294Z,100051.42
2022-11-23T14:53:47.416Z,100055.27
2022-11-23T14:56:39.209Z,100064.98
2022-11-23T14:59:25.568Z,100068.42
2022-11-23T15:01:56.092Z,100070.76
2022-11-23T15:04:36.264Z,100073.91
2022-11-23T15:07:19.969Z,100073.75
2022-11-23T15:09:47.868Z,100070.88
2022-11-23T15:12:28.247Z,100073.52
2022-11-23T15:14:57.770Z,100070.01
2022-11-23T15:17:26.074Z,100067.45
2022-11-23T15:19:59.746Z,100069.48
2022-11-23T15:22:29.131Z,100069.80
2022-11-23T15:25:09.637Z,100070.36
2022-11-23T15:27:41.349Z,100070.37
2022-11-23T15:30:19.973Z,100069.69
2022-11-23T15:32:59.419Z,100074.59
2022-11-23T15:35:35.736Z,100074.98
2022-11-23T15:38:09.675Z,100072.90
2022-11-23T15:40:41.754Z,100069.85
2022-11-23T15:43:14.252Z,100067.84
2022-11-23T15:46:01.748Z,100060.80
2022-11-23T15:48:33.632Z,100060.23
2022-11-23T15:51:04.811Z,100059.61
2022-11-23T15:53:49.132Z,100055.71
2022-11-23T15:56:25.368Z,100059.69
2022-11-23T15:58:54.669Z,100062.91
2022-11-23T16:01:23.324Z,100060.77
2022-11-23T16:04:05.043Z,100062.45
2022-11-23T16:06:36.413Z,100067.30
2022-11-23T16:12:28.525Z,100064.41
2022-11-23T16:14:59.739Z,100060.86
2022-11-23T16:17:29.640Z,100059.45
2022-11-23T16:20:00.041Z,100059.39
2022-11-23T16:22:36.062Z,100063.59
2022-11-23T16:25:09.190Z,100065.91
2022-11-23T16:27:37.713Z,100067.17
2022-11-23T16:30:06.569Z,100069.52
2022-11-23T16:32:34.645Z,100070.40
2022-11-23T16:35:16.845Z,100066.75
2022-11-23T16:37:47.038Z,100069.73
2022-11-23T16:40:15.755Z,100072.48
2022-11-23T16:42:44.439Z,100080.58
2022-11-23T16:45:12.513Z,100080.42
2022-11-23T16:48:00.758Z,100084.77
2022-11-23T16:50:31.233Z,100086.35
2022-11-23T16:53:02.472Z,100088.00
2022-11-23T16:55:30.543Z,100087.22
2022-11-23T16:57:58.638Z,100090.83
2022-11-23T17:00:27.159Z,100089.60
2022-11-23T17:02:55.268Z,100086.70
2022-11-23T17:05:26.584Z,100081.30
2022-11-23T17:07:54.842Z,100084.00
2022-11-23T17:10:23.234Z,100086.91
2022-11-23T17:12:54.090Z,100084.40
2022-11-23T17:15:23.851Z,100085.55
2022-11-23T17:17:52.478Z,100082.69
2022-11-23T17:20:20.704Z,100078.73
2022-11-23T17:22:52.102Z,100075.10
2022-11-23T17:25:19.957Z,100079.13
2022-11-23T17:27:48.456Z,100075.23
2022-11-23T17:30:20.962Z,100074.84
2022-11-23T17:32:49.683Z,100071.49
2022-11-23T17:35:17.981Z,100074.35
2022-11-23T17:37:47.120Z,100072.66
2022-11-23T17:40:16.078Z,100071.15
2022-11-23T17:42:44.559Z,100071.80
2022-11-23T17:45:13.348Z,100068.34
2022-11-23T17:47:43.860Z,100069.66
2022-11-23T17:50:19.512Z,100073.52
2022-11-23T17:52:48.218Z,100076.39
2022-11-23T17:55:16.792Z,100076.41
2022-11-23T17:57:44.656Z,100075.77
2022-11-23T18:00:23.409Z,100075.13
2022-11-23T18:02:52.918Z,100078.13
2022-11-23T18:05:22.159Z,100080.02
2022-11-23T18:07:51.209Z,100082.38
2022-11-23T18:10:19.409Z,100080.17
2022-11-23T18:12:47.848Z,100077.52
2022-11-23T18:15:15.917Z,100075.97
2022-11-23T18:17:44.089Z,100079.65
2022-11-23T18:20:13.299Z,100082.80
2022-11-23T18:22:41.263Z,100083.98
2022-11-23T18:25:09.434Z,100084.45
2022-11-23T18:27:37.505Z,100082.96
2022-11-23T18:30:06.275Z,100082.64
2022-11-23T18:32:34.373Z,100088.42
2022-11-23T18:35:02.611Z,100087.42
2022-11-23T18:37:30.818Z,100093.01
2022-11-23T18:39:58.693Z,100096.73
2022-11-23T18:42:26.764Z,100098.70
2022-11-23T18:44:54.627Z,100099.59
2022-11-23T18:47:22.800Z,100098.06
2022-11-23T18:49:51.077Z,100095.52
2022-11-23T18:52:18.945Z,100093.20
2022-11-23T18:54:46.799Z,100096.27
2022-11-23T18:57:16.850Z,100098.46
2022-11-23T19:00:00.861Z,100100.09
2022-11-23T19:02:29.646Z,100102.94
2022-11-23T19:04:58.088Z,100104.08
2022-11-23T19:07:27.442Z,100105.98
2022-11-23T19:09:55.938Z,100108.02
2022-11-23T19:12:23.897Z,100112.21
2022-11-23T19:14:51.973Z,100108.91
2022-11-23T19:17:20.457Z,100106.94
2022-11-23T19:19:48.424Z,100109.05
2022-11-23T19:22:16.292Z,100108.70
2022-11-23T19:24:44.581Z,100113.60
2022-11-23T19:27:12.545Z,100109.48
2022-11-23T19:29:40.394Z,100108.38
2022-11-23T19:32:08.792Z,100114.02
2022-11-23T19:34:36.662Z,100115.31
2022-11-23T19:37:04.667Z,100114.09
2022-11-23T19:39:32.816Z,100116.77
2022-11-23T19:42:01.967Z,100115.45
2022-11-23T19:44:29.973Z,100118.21
2022-11-23T19:46:58.001Z,100116.96
2022-11-23T19:49:26.527Z,100121.10
2022-11-23T19:51:56.344Z,100120.14
2022-11-23T19:54:24.367Z,100123.95
2022-11-23T19:56:52.321Z,100123.20
2022-11-23T19:59:20.244Z,100125.77
2022-11-23T20:01:48.271Z,100132.17
2022-11-23T20:04:16.634Z,100132.27
2022-11-23T20:06:44.564Z,100130.23
2022-11-23T20:09:23.801Z,100134.00
2022-11-23T20:11:52.065Z,100134.63
2022-11-23T20:14:20.660Z,100131.58
2022-11-23T20:16:49.145Z,100131.18
2022-11-23T20:19:17.529Z,100134.10
2022-11-23T20:21:45.654Z,100131.64
2022-11-23T20:24:14.133Z,100136.48
2022-11-23T20:26:42.936Z,100143.84
2022-11-23T20:29:13.759Z,100138.61
2022-11-23T20:31:42.073Z,100141.21
2022-11-23T20:34:15.388Z,100141.57
2022-11-23T20:36:45.287Z,100150.02
2022-11-23T20:39:14.282Z,100146.91
2022-11-23T20:41:43.186Z,100153.95
2022-11-23T20:44:13.914Z,100152.71
2022-11-23T20:49:31.555Z,100155.23
2022-11-23T20:51:59.937Z,100155.34
2022-11-23T20:54:28.527Z,100158.86
2022-11-23T20:57:00.228Z,100157.47
2022-11-23T20:59:29.482Z,100159.84
2022-11-23T21:01:57.765Z,100158.77
2022-11-23T21:04:26.071Z,100157.09
2022-11-23T21:06:55.543Z,100158.02
2022-11-23T21:09:23.609Z,100158.80
2022-11-23T21:12:10.210Z,100159.71
2022-11-23T21:14:38.592Z,100159.54
2022-11-23T21:17:06.501Z,100160.69
2022-11-23T21:19:37.830Z,100155.17
2022-11-23T21:22:11.527Z,100158.87
2022-11-23T21:24:40.616Z,100165.08
2022-11-23T21:27:12.380Z,100168.52
2022-11-23T21:29:40.932Z,100169.91
2022-11-23T21:32:08.741Z,100167.70
2022-11-23T21:34:37.310Z,100166.27
2022-11-23T21:37:05.514Z,100169.66
2022-11-23T21:39:33.564Z,100167.66
2022-11-23T21:42:01.641Z,100171.89
2022-11-23T21:44:29.807Z,100173.33
2022-11-23T21:46:58.153Z,100178.38
2022-11-23T21:49:27.939Z,100181.61
2022-11-23T21:51:55.941Z,100187.29
2022-11-23T21:54:23.829Z,100189.48
2022-11-23T21:56:51.805Z,100186.58
2022-11-23T21:59:19.880Z,100189.27
2022-11-23T22:01:48.505Z,100189.16
2022-11-23T22:04:17.355Z,100190.23
2022-11-23T22:06:45.714Z,100189.22
2022-11-23T22:09:14.523Z,100187.22
2022-11-23T22:11:44.329Z,100190.53
2022-11-23T22:14:17.329Z,100189.38
2022-11-23T22:16:47.848Z,100192.27
2022-11-23T22:19:17.062Z,100189.48
2022-11-23T22:21:46.959Z,100194.69
2022-11-23T22:24:17.885Z,100203.17
2022-11-23T22:26:47.894Z,100204.36
2022-11-23T22:29:16.764Z,100209.38
2022-11-23T22:31:45.214Z,100208.83
2022-11-23T22:34:14.511Z,100213.52
2022-11-23T22:36:43.105Z,100215.08
2022-11-23T22:39:11.681Z,100213.98
2022-11-23T22:41:40.353Z,100209.94
2022-11-23T22:44:10.135Z,100207.77
2022-11-23T22:46:39.478Z,100205.73
2022-11-23T22:49:07.863Z,100203.60
2022-11-23T22:51:36.572Z,100208.23
2022-11-23T22:54:05.027Z,100212.52
2022-11-23T22:56:33.188Z,100213.45
2022-11-23T22:59:01.477Z,100215.73
2022-11-23T23:01:31.128Z,100221.45
2022-11-23T23:04:02.160Z,100225.43
2022-11-23T23:06:36.154Z,100228.35
2022-11-23T23:09:07.192Z,100227.86
2022-11-23T23:11:36.272Z,100227.30
2022-11-23T23:14:05.567Z,100228.42
2022-11-23T23:16:34.640Z,100222.28
2022-11-23T23:19:03.767Z,100216.07
2022-11-23T23:21:32.256Z,100210.61
2022-11-23T23:24:03.795Z,100210.11
2022-11-23T23:26:32.189Z,100213.09
2022-11-23T23:29:01.225Z,100212.73
2022-11-23T23:31:30.616Z,100210.83
2022-11-23T23:33:59.981Z,100209.18
2022-11-23T23:36:28.558Z,100210.20
2022-11-23T23:38:58.168Z,100206.13
2022-11-23T23:41:26.241Z,100205.23
2022-11-23T23:43:54.442Z,100210.11
2022-11-23T23:46:23.177Z,100208.85
2022-11-23T23:48:51.696Z,100206.29
2022-11-23T23:51:24.411Z,100199.81
2022-11-23T23:53:53.063Z,100195.95
2022-11-23T23:56:24.403Z,100189.74
2022-11-23T23:58:52.753Z,100192.33
